sensor_id;sensor_type;location;lat;lon;timestamp;temperature;humidity
60353;DHT22;46196;52.970;6.954;2023-04-03T00:00:29;2.50;99.90
60353;DHT22;46196;52.970;6.954;2023-04-03T00:02:55;2.40;99.90
60353;DHT22;46196;52.970;6.954;2023-04-03T00:05:21;2.40;99.90
60353;DHT22;46196;52.970;6.954;2023-04-03T00:07:47;2.30;99.90
60353;DHT22;46196;52.970;6.954;2023-04-03T00:10:12;2.30;99.90
60353;DHT22;46196;52.970;6.954;2023-04-03T00:12:39;2.90;99.90
60353;DHT22;46196;52.970;6.954;2023-04-03T00:15:05;2.30;99.90
60353;DHT22;46196;52.970;6.954;2023-04-03T00:17:31;2.30;99.90
60353;DHT22;46196;52.970;6.954;2023-04-03T00:19:57;2.20;99.90
60353;DHT22;46196;52.970;6.954;2023-04-03T00:22:23;2.20;99.90
60353;DHT22;46196;52.970;6.954;2023-04-03T00:24:49;2.20;99.90
60353;DHT22;46196;52.970;6.954;2023-04-03T00:27:15;3.10;99.90
60353;DHT22;46196;52.970;6.954;2023-04-03T00:29:41;2.10;99.90
60353;DHT22;46196;52.970;6.954;2023-04-03T00:32:07;2.10;99.90
60353;DHT22;46196;52.970;6.954;2023-04-03T00:34:32;2.10;99.90
60353;DHT22;46196;52.970;6.954;2023-04-03T00:36:58;2.00;99.90
60353;DHT22;46196;52.970;6.954;2023-04-03T00:39:24;2.00;99.90
60353;DHT22;46196;52.970;6.954;2023-04-03T00:41:50;2.00;99.90
60353;DHT22;46196;52.970;6.954;2023-04-03T00:47:13;1.90;99.90
60353;DHT22;46196;52.970;6.954;2023-04-03T00:49:39;1.90;99.90
60353;DHT22;46196;52.970;6.954;2023-04-03T00:52:08;1.90;99.90
60353;DHT22;46196;52.970;6.954;2023-04-03T00:54:36;2.80;99.90
60353;DHT22;46196;52.970;6.954;2023-04-03T00:57:03;1.80;99.90
60353;DHT22;46196;52.970;6.954;2023-04-03T00:59:41;1.80;99.90
60353;DHT22;46196;52.970;6.954;2023-04-03T01:02:09;1.80;99.90
60353;DHT22;46196;52.970;6.954;2023-04-03T01:07:18;3.10;99.90
60353;DHT22;46196;52.970;6.954;2023-04-03T01:09:48;1.70;99.90
60353;DHT22;46196;52.970;6.954;2023-04-03T01:12:21;1.70;99.90
60353;DHT22;46196;52.970;6.954;2023-04-03T01:14:50;1.70;99.90
60353;DHT22;46196;52.970;6.954;2023-04-03T01:17:43;1.60;99.90
60353;DHT22;46196;52.970;6.954;2023-04-03T01:25:20;1.60;99.90
60353;DHT22;46196;52.970;6.954;2023-04-03T01:27:45;1.60;99.90
60353;DHT22;46196;52.970;6.954;2023-04-03T01:30:12;1.60;99.90
60353;DHT22;46196;52.970;6.954;2023-04-03T01:32:39;1.50;99.90
60353;DHT22;46196;52.970;6.954;2023-04-03T01:35:08;3.00;99.90
60353;DHT22;46196;52.970;6.954;2023-04-03T01:37:34;1.40;99.90
60353;DHT22;46196;52.970;6.954;2023-04-03T01:39:59;1.40;99.90
60353;DHT22;46196;52.970;6.954;2023-04-03T01:42:25;1.40;99.90
60353;DHT22;46196;52.970;6.954;2023-04-03T01:44:51;1.40;99.90
60353;DHT22;46196;52.970;6.954;2023-04-03T01:47:17;1.30;99.90
60353;DHT22;46196;52.970;6.954;2023-04-03T01:49:43;1.30;99.90
60353;DHT22;46196;52.970;6.954;2023-04-03T01:52:08;1.30;99.90
60353;DHT22;46196;52.970;6.954;2023-04-03T01:54:34;1.30;99.90
60353;DHT22;46196;52.970;6.954;2023-04-03T01:57:00;1.20;99.90
60353;DHT22;46196;52.970;6.954;2023-04-03T01:59:26;1.40;99.90
60353;DHT22;46196;52.970;6.954;2023-04-03T02:01:52;1.20;99.90
60353;DHT22;46196;52.970;6.954;2023-04-03T02:06:43;1.20;99.90
60353;DHT22;46196;52.970;6.954;2023-04-03T02:09:09;1.10;99.90
60353;DHT22;46196;52.970;6.954;2023-04-03T02:11:35;1.10;99.90
60353;DHT22;46196;52.970;6.954;2023-04-03T02:14:01;1.30;99.90
60353;DHT22;46196;52.970;6.954;2023-04-03T02:16:26;1.00;99.90
60353;DHT22;46196;52.970;6.954;2023-04-03T02:18:54;1.00;99.90
60353;DHT22;46196;52.970;6.954;2023-04-03T02:21:20;1.00;99.90
60353;DHT22;46196;52.970;6.954;2023-04-03T02:23:46;1.00;99.90
60353;DHT22;46196;52.970;6.954;2023-04-03T02:31:07;1.40;99.90
60353;DHT22;46196;52.970;6.954;2023-04-03T02:43:25;0.90;99.90
60353;DHT22;46196;52.970;6.954;2023-04-03T02:45:51;0.70;99.90
60353;DHT22;46196;52.970;6.954;2023-04-03T02:48:17;0.70;99.90
60353;DHT22;46196;52.970;6.954;2023-04-03T02:50:43;0.70;99.90
60353;DHT22;46196;52.970;6.954;2023-04-03T02:53:09;0.60;99.90
60353;DHT22;46196;52.970;6.954;2023-04-03T02:55:35;0.60;99.90
60353;DHT22;46196;52.970;6.954;2023-04-03T02:58:00;0.50;99.90
60353;DHT22;46196;52.970;6.954;2023-04-03T03:00:26;0.50;99.90
60353;DHT22;46196;52.970;6.954;2023-04-03T03:02:52;0.50;99.90
60353;DHT22;46196;52.970;6.954;2023-04-03T03:05:18;0.40;99.90
60353;DHT22;46196;52.970;6.954;2023-04-03T03:07:43;0.40;99.90
60353;DHT22;46196;52.970;6.954;2023-04-03T03:10:09;0.40;99.90
60353;DHT22;46196;52.970;6.954;2023-04-03T03:12:35;0.70;99.90
60353;DHT22;46196;52.970;6.954;2023-04-03T03:15:01;0.30;99.90
60353;DHT22;46196;52.970;6.954;2023-04-03T03:17:27;0.30;99.90
60353;DHT22;46196;52.970;6.954;2023-04-03T03:19:52;1.20;99.90
60353;DHT22;46196;52.970;6.954;2023-04-03T03:22:20;0.20;99.90
60353;DHT22;46196;52.970;6.954;2023-04-03T03:24:45;-0.40;99.90
60353;DHT22;46196;52.970;6.954;2023-04-03T03:27:11;0.20;99.90
60353;DHT22;46196;52.970;6.954;2023-04-03T03:29:37;0.20;99.90
60353;DHT22;46196;52.970;6.954;2023-04-03T03:32:03;0.10;99.90
60353;DHT22;46196;52.970;6.954;2023-04-03T03:34:30;0.20;99.90
60353;DHT22;46196;52.970;6.954;2023-04-03T03:36:55;0.20;99.90
60353;DHT22;46196;52.970;6.954;2023-04-03T03:39:22;0.10;99.90
60353;DHT22;46196;52.970;6.954;2023-04-03T03:41:48;0.20;99.90
60353;DHT22;46196;52.970;6.954;2023-04-03T03:44:15;0.00;99.90
60353;DHT22;46196;52.970;6.954;2023-04-03T03:46:40;0.10;99.90
60353;DHT22;46196;52.970;6.954;2023-04-03T03:49:06;0.00;99.90
60353;DHT22;46196;52.970;6.954;2023-04-03T03:51:32;0.00;99.90
60353;DHT22;46196;52.970;6.954;2023-04-03T03:53:58;0.00;99.90
60353;DHT22;46196;52.970;6.954;2023-04-03T03:56:23;-0.10;99.90
60353;DHT22;46196;52.970;6.954;2023-04-03T03:58:49;1.10;99.90
60353;DHT22;46196;52.970;6.954;2023-04-03T04:01:15;0.00;99.90
60353;DHT22;46196;52.970;6.954;2023-04-03T04:03:42;0.00;99.90
60353;DHT22;46196;52.970;6.954;2023-04-03T04:06:08;0.00;99.90
60353;DHT22;46196;52.970;6.954;2023-04-03T04:08:33;-0.10;99.90
60353;DHT22;46196;52.970;6.954;2023-04-03T04:10:59;-0.10;99.90
60353;DHT22;46196;52.970;6.954;2023-04-03T04:13:25;-0.10;99.90
60353;DHT22;46196;52.970;6.954;2023-04-03T04:15:51;-0.10;99.90
60353;DHT22;46196;52.970;6.954;2023-04-03T04:18:17;-0.20;99.90
60353;DHT22;46196;52.970;6.954;2023-04-03T04:20:45;-0.20;99.90
60353;DHT22;46196;52.970;6.954;2023-04-03T04:23:11;-0.20;99.90
60353;DHT22;46196;52.970;6.954;2023-04-03T04:25:37;-0.20;99.90
60353;DHT22;46196;52.970;6.954;2023-04-03T04:28:03;-0.20;99.90
60353;DHT22;46196;52.970;6.954;2023-04-03T04:30:29;-0.20;99.90
60353;DHT22;46196;52.970;6.954;2023-04-03T04:32:54;-0.20;99.90
60353;DHT22;46196;52.970;6.954;2023-04-03T04:35:20;-0.30;99.90
60353;DHT22;46196;52.970;6.954;2023-04-03T04:37:46;-0.20;99.90
60353;DHT22;46196;52.970;6.954;2023-04-03T04:40:12;-0.20;99.90
60353;DHT22;46196;52.970;6.954;2023-04-03T04:42:37;-0.20;99.90
60353;DHT22;46196;52.970;6.954;2023-04-03T04:45:04;-0.20;99.90
60353;DHT22;46196;52.970;6.954;2023-04-03T04:47:30;-0.20;99.90
60353;DHT22;46196;52.970;6.954;2023-04-03T04:49:55;-0.20;99.90
60353;DHT22;46196;52.970;6.954;2023-04-03T04:52:21;0.80;99.90
60353;DHT22;46196;52.970;6.954;2023-04-03T04:54:47;-0.30;99.90
60353;DHT22;46196;52.970;6.954;2023-04-03T04:57:13;-0.20;99.90
60353;DHT22;46196;52.970;6.954;2023-04-03T04:59:38;-0.40;99.90
60353;DHT22;46196;52.970;6.954;2023-04-03T05:02:04;-0.40;99.90
60353;DHT22;46196;52.970;6.954;2023-04-03T05:04:30;-0.50;99.90
60353;DHT22;46196;52.970;6.954;2023-04-03T05:06:56;-0.30;99.90
60353;DHT22;46196;52.970;6.954;2023-04-03T05:09:22;-0.30;99.90
60353;DHT22;46196;52.970;6.954;2023-04-03T05:11:48;-0.50;99.90
60353;DHT22;46196;52.970;6.954;2023-04-03T05:14:14;-0.20;99.90
60353;DHT22;46196;52.970;6.954;2023-04-03T05:16:39;-0.70;99.90
60353;DHT22;46196;52.970;6.954;2023-04-03T05:19:05;-0.40;99.90
60353;DHT22;46196;52.970;6.954;2023-04-03T05:21:31;-0.60;99.90
60353;DHT22;46196;52.970;6.954;2023-04-03T05:24:01;-0.40;99.90
60353;DHT22;46196;52.970;6.954;2023-04-03T05:26:30;-0.40;99.90
60353;DHT22;46196;52.970;6.954;2023-04-03T05:28:56;-0.20;99.90
60353;DHT22;46196;52.970;6.954;2023-04-03T05:31:21;-0.30;99.90
60353;DHT22;46196;52.970;6.954;2023-04-03T05:33:48;1.00;99.90
60353;DHT22;46196;52.970;6.954;2023-04-03T05:36:14;0.50;99.90
60353;DHT22;46196;52.970;6.954;2023-04-03T05:38:39;-0.50;99.90
60353;DHT22;46196;52.970;6.954;2023-04-03T05:41:05;-0.40;99.90
60353;DHT22;46196;52.970;6.954;2023-04-03T05:43:31;-0.20;99.90
60353;DHT22;46196;52.970;6.954;2023-04-03T05:45:58;-0.30;99.90
60353;DHT22;46196;52.970;6.954;2023-04-03T05:48:23;-0.20;99.90
60353;DHT22;46196;52.970;6.954;2023-04-03T05:50:49;-0.20;99.90
60353;DHT22;46196;52.970;6.954;2023-04-03T05:53:21;0.00;99.90
60353;DHT22;46196;52.970;6.954;2023-04-03T05:55:48;-0.10;99.90
60353;DHT22;46196;52.970;6.954;2023-04-03T05:58:14;-0.10;99.90
60353;DHT22;46196;52.970;6.954;2023-04-03T06:00:39;0.30;99.90
60353;DHT22;46196;52.970;6.954;2023-04-03T06:03:05;-0.10;99.90
60353;DHT22;46196;52.970;6.954;2023-04-03T06:05:31;0.00;99.90
60353;DHT22;46196;52.970;6.954;2023-04-03T06:07:57;0.00;99.90
60353;DHT22;46196;52.970;6.954;2023-04-03T06:10:23;0.10;99.90
60353;DHT22;46196;52.970;6.954;2023-04-03T06:12:49;0.10;99.90
60353;DHT22;46196;52.970;6.954;2023-04-03T06:15:15;0.40;99.90
60353;DHT22;46196;52.970;6.954;2023-04-03T06:17:42;0.20;99.90
60353;DHT22;46196;52.970;6.954;2023-04-03T06:20:08;0.20;99.90
60353;DHT22;46196;52.970;6.954;2023-04-03T06:22:35;0.30;99.90
60353;DHT22;46196;52.970;6.954;2023-04-03T06:25:01;0.40;99.90
60353;DHT22;46196;52.970;6.954;2023-04-03T06:27:27;0.40;99.90
60353;DHT22;46196;52.970;6.954;2023-04-03T06:29:52;0.90;99.90
60353;DHT22;46196;52.970;6.954;2023-04-03T06:32:18;0.60;99.90
60353;DHT22;46196;52.970;6.954;2023-04-03T06:34:44;0.70;99.90
60353;DHT22;46196;52.970;6.954;2023-04-03T06:37:19;0.70;99.90
60353;DHT22;46196;52.970;6.954;2023-04-03T06:39:46;0.80;99.90
60353;DHT22;46196;52.970;6.954;2023-04-03T06:42:11;1.10;99.90
60353;DHT22;46196;52.970;6.954;2023-04-03T06:44:37;0.90;99.90
60353;DHT22;46196;52.970;6.954;2023-04-03T06:47:03;1.30;99.90
60353;DHT22;46196;52.970;6.954;2023-04-03T06:49:29;1.00;99.90
60353;DHT22;46196;52.970;6.954;2023-04-03T06:51:55;1.10;99.90
60353;DHT22;46196;52.970;6.954;2023-04-03T06:54:22;1.20;99.90
60353;DHT22;46196;52.970;6.954;2023-04-03T06:56:48;1.30;99.90
60353;DHT22;46196;52.970;6.954;2023-04-03T06:59:14;2.90;99.90
60353;DHT22;46196;52.970;6.954;2023-04-03T07:01:41;1.40;99.90
60353;DHT22;46196;52.970;6.954;2023-04-03T07:04:07;1.40;99.90
60353;DHT22;46196;52.970;6.954;2023-04-03T07:06:34;2.20;99.90
60353;DHT22;46196;52.970;6.954;2023-04-03T07:09:01;1.60;99.90
60353;DHT22;46196;52.970;6.954;2023-04-03T07:11:26;1.60;99.90
60353;DHT22;46196;52.970;6.954;2023-04-03T07:13:53;1.50;99.90
60353;DHT22;46196;52.970;6.954;2023-04-03T07:16:20;2.50;99.90
60353;DHT22;46196;52.970;6.954;2023-04-03T07:18:46;1.90;99.90
60353;DHT22;46196;52.970;6.954;2023-04-03T07:21:12;1.90;99.90
60353;DHT22;46196;52.970;6.954;2023-04-03T07:23:38;2.00;99.90
60353;DHT22;46196;52.970;6.954;2023-04-03T07:26:04;2.00;99.90
60353;DHT22;46196;52.970;6.954;2023-04-03T07:28:31;2.10;99.90
60353;DHT22;46196;52.970;6.954;2023-04-03T07:31:08;2.20;99.90
60353;DHT22;46196;52.970;6.954;2023-04-03T07:33:37;2.30;99.90
60353;DHT22;46196;52.970;6.954;2023-04-03T07:36:04;2.80;99.90
60353;DHT22;46196;52.970;6.954;2023-04-03T07:38:30;2.50;99.90
60353;DHT22;46196;52.970;6.954;2023-04-03T07:40:56;2.60;99.90
60353;DHT22;46196;52.970;6.954;2023-04-03T07:43:22;2.60;99.90
60353;DHT22;46196;52.970;6.954;2023-04-03T07:45:50;4.20;99.90
60353;DHT22;46196;52.970;6.954;2023-04-03T07:48:19;3.20;99.90
60353;DHT22;46196;52.970;6.954;2023-04-03T07:50:45;3.10;99.90
60353;DHT22;46196;52.970;6.954;2023-04-03T07:53:11;3.00;99.90
60353;DHT22;46196;52.970;6.954;2023-04-03T07:55:37;3.10;99.90
60353;DHT22;46196;52.970;6.954;2023-04-03T07:58:14;4.50;99.90
60353;DHT22;46196;52.970;6.954;2023-04-03T08:00:40;4.30;99.90
60353;DHT22;46196;52.970;6.954;2023-04-03T08:03:06;5.50;99.90
60353;DHT22;46196;52.970;6.954;2023-04-03T08:05:43;6.70;99.90
60353;DHT22;46196;52.970;6.954;2023-04-03T08:08:11;7.80;99.90
60353;DHT22;46196;52.970;6.954;2023-04-03T08:10:37;8.80;99.90
60353;DHT22;46196;52.970;6.954;2023-04-03T08:13:04;9.50;99.90
60353;DHT22;46196;52.970;6.954;2023-04-03T08:15:30;10.10;99.90
60353;DHT22;46196;52.970;6.954;2023-04-03T08:17:57;10.80;99.90
60353;DHT22;46196;52.970;6.954;2023-04-03T08:22:50;11.40;91.80
60353;DHT22;46196;52.970;6.954;2023-04-03T08:27:43;12.10;86.80
60353;DHT22;46196;52.970;6.954;2023-04-03T08:35:03;12.70;83.30
60353;DHT22;46196;52.970;6.954;2023-04-03T08:37:30;13.60;79.60
60353;DHT22;46196;52.970;6.954;2023-04-03T08:39:56;13.70;75.10
60353;DHT22;46196;52.970;6.954;2023-04-03T08:45:25;13.80;68.90
60353;DHT22;46196;52.970;6.954;2023-04-03T08:48:06;14.20;72.80
60353;DHT22;46196;52.970;6.954;2023-04-03T08:50:40;14.60;73.40
60353;DHT22;46196;52.970;6.954;2023-04-03T08:55:51;14.70;67.50
60353;DHT22;46196;52.970;6.954;2023-04-03T09:14:56;15.90;61.20
60353;DHT22;46196;52.970;6.954;2023-04-03T10:26:00;11.70;66.50
60353;DHT22;46196;52.970;6.954;2023-04-03T10:33:53;11.50;69.40
60353;DHT22;46196;52.970;6.954;2023-04-03T10:42:17;12.00;65.20
60353;DHT22;46196;52.970;6.954;2023-04-03T10:47:36;12.50;64.00
60353;DHT22;46196;52.970;6.954;2023-04-03T10:53:12;12.10;63.50
60353;DHT22;46196;52.970;6.954;2023-04-03T10:58:41;11.90;65.10
60353;DHT22;46196;52.970;6.954;2023-04-03T11:01:21;11.80;69.60
60353;DHT22;46196;52.970;6.954;2023-04-03T11:03:54;11.90;72.70
60353;DHT22;46196;52.970;6.954;2023-04-03T11:06:25;12.10;70.20
60353;DHT22;46196;52.970;6.954;2023-04-03T11:08:59;12.40;70.10
60353;DHT22;46196;52.970;6.954;2023-04-03T11:11:34;12.40;68.80
60353;DHT22;46196;52.970;6.954;2023-04-03T11:14:28;12.60;68.80
60353;DHT22;46196;52.970;6.954;2023-04-03T11:19:41;12.80;67.50
60353;DHT22;46196;52.970;6.954;2023-04-03T11:22:23;12.70;64.80
60353;DHT22;46196;52.970;6.954;2023-04-03T11:27:50;12.80;65.60
60353;DHT22;46196;52.970;6.954;2023-04-03T11:30:28;12.70;62.90
60353;DHT22;46196;52.970;6.954;2023-04-03T11:33:17;12.80;66.20
60353;DHT22;46196;52.970;6.954;2023-04-03T11:35:49;12.80;65.20
60353;DHT22;46196;52.970;6.954;2023-04-03T11:38:27;12.80;63.50
60353;DHT22;46196;52.970;6.954;2023-04-03T11:40:55;12.70;65.20
60353;DHT22;46196;52.970;6.954;2023-04-03T11:43:28;12.50;67.10
60353;DHT22;46196;52.970;6.954;2023-04-03T11:46:05;12.70;60.30
60353;DHT22;46196;52.970;6.954;2023-04-03T11:53:39;12.60;63.80
60353;DHT22;46196;52.970;6.954;2023-04-03T12:01:55;12.60;63.00
60353;DHT22;46196;52.970;6.954;2023-04-03T12:04:23;12.80;60.80
60353;DHT22;46196;52.970;6.954;2023-04-03T12:06:54;13.00;64.10
60353;DHT22;46196;52.970;6.954;2023-04-03T12:11:57;13.20;59.20
60353;DHT22;46196;52.970;6.954;2023-04-03T12:14:24;13.10;60.40
60353;DHT22;46196;52.970;6.954;2023-04-03T12:16:53;12.90;59.40
60353;DHT22;46196;52.970;6.954;2023-04-03T12:19:38;12.80;59.10
60353;DHT22;46196;52.970;6.954;2023-04-03T12:22:19;12.80;59.60
60353;DHT22;46196;52.970;6.954;2023-04-03T12:24:51;12.70;61.20
60353;DHT22;46196;52.970;6.954;2023-04-03T12:27:41;12.80;60.00
60353;DHT22;46196;52.970;6.954;2023-04-03T12:30:18;12.90;60.70
60353;DHT22;46196;52.970;6.954;2023-04-03T12:33:17;13.10;60.10
60353;DHT22;46196;52.970;6.954;2023-04-03T12:43:50;13.50;58.10
60353;DHT22;46196;52.970;6.954;2023-04-03T12:46:21;13.80;58.40
60353;DHT22;46196;52.970;6.954;2023-04-03T12:48:53;13.70;59.10
60353;DHT22;46196;52.970;6.954;2023-04-03T12:54:14;13.80;57.10
60353;DHT22;46196;52.970;6.954;2023-04-03T12:56:40;13.70;57.60
60353;DHT22;46196;52.970;6.954;2023-04-03T12:59:18;13.60;58.90
60353;DHT22;46196;52.970;6.954;2023-04-03T13:01:53;13.40;59.80
60353;DHT22;46196;52.970;6.954;2023-04-03T13:04:20;13.60;58.90
60353;DHT22;46196;52.970;6.954;2023-04-03T13:06:46;13.70;58.70
60353;DHT22;46196;52.970;6.954;2023-04-03T13:09:30;13.80;57.80
60353;DHT22;46196;52.970;6.954;2023-04-03T13:12:02;14.00;58.70
60353;DHT22;46196;52.970;6.954;2023-04-03T13:14:29;14.10;56.20
60353;DHT22;46196;52.970;6.954;2023-04-03T13:17:04;14.10;57.70
60353;DHT22;46196;52.970;6.954;2023-04-03T13:19:32;14.20;53.00
60353;DHT22;46196;52.970;6.954;2023-04-03T13:24:49;14.10;54.90
60353;DHT22;46196;52.970;6.954;2023-04-03T13:27:16;14.20;56.60
60353;DHT22;46196;52.970;6.954;2023-04-03T13:29:43;14.40;57.70
60353;DHT22;46196;52.970;6.954;2023-04-03T13:32:38;14.40;54.60
60353;DHT22;46196;52.970;6.954;2023-04-03T13:35:32;14.00;55.10
60353;DHT22;46196;52.970;6.954;2023-04-03T13:38:03;14.00;52.50
60353;DHT22;46196;52.970;6.954;2023-04-03T13:40:29;14.20;55.10
60353;DHT22;46196;52.970;6.954;2023-04-03T13:43:14;14.30;57.10
60353;DHT22;46196;52.970;6.954;2023-04-03T13:48:49;14.40;55.90
60353;DHT22;46196;52.970;6.954;2023-04-03T13:51:21;14.40;56.70
60353;DHT22;46196;52.970;6.954;2023-04-03T13:54:10;14.60;55.80
60353;DHT22;46196;52.970;6.954;2023-04-03T13:56:39;14.50;52.50
60353;DHT22;46196;52.970;6.954;2023-04-03T14:04:20;14.30;55.50
60353;DHT22;46196;52.970;6.954;2023-04-03T14:06:47;14.60;58.10
60353;DHT22;46196;52.970;6.954;2023-04-03T14:09:14;15.00;56.80
60353;DHT22;46196;52.970;6.954;2023-04-03T14:11:41;15.50;56.10
60353;DHT22;46196;52.970;6.954;2023-04-03T14:14:22;15.90;55.00
60353;DHT22;46196;52.970;6.954;2023-04-03T14:16:53;16.20;54.10
60353;DHT22;46196;52.970;6.954;2023-04-03T14:19:24;16.50;54.60
60353;DHT22;46196;52.970;6.954;2023-04-03T14:21:51;16.50;56.40
60353;DHT22;46196;52.970;6.954;2023-04-03T14:24:19;16.60;57.70
60353;DHT22;46196;52.970;6.954;2023-04-03T14:26:45;16.60;61.90
60353;DHT22;46196;52.970;6.954;2023-04-03T14:29:13;16.70;67.50
60353;DHT22;46196;52.970;6.954;2023-04-03T14:31:41;16.60;61.30
60353;DHT22;46196;52.970;6.954;2023-04-03T14:34:07;16.20;64.40
60353;DHT22;46196;52.970;6.954;2023-04-03T14:36:33;16.10;46.10
60353;DHT22;46196;52.970;6.954;2023-04-03T14:38:59;15.70;42.80
60353;DHT22;46196;52.970;6.954;2023-04-03T14:41:27;15.50;44.90
60353;DHT22;46196;52.970;6.954;2023-04-03T14:43:53;15.30;46.60
60353;DHT22;46196;52.970;6.954;2023-04-03T14:46:30;15.30;45.30
60353;DHT22;46196;52.970;6.954;2023-04-03T14:48:57;15.10;44.50
60353;DHT22;46196;52.970;6.954;2023-04-03T14:51:23;15.10;46.60
60353;DHT22;46196;52.970;6.954;2023-04-03T14:53:49;14.90;46.10
60353;DHT22;46196;52.970;6.954;2023-04-03T14:56:22;14.80;47.60
60353;DHT22;46196;52.970;6.954;2023-04-03T14:58:50;14.70;48.70
60353;DHT22;46196;52.970;6.954;2023-04-03T15:01:18;14.60;46.80
60353;DHT22;46196;52.970;6.954;2023-04-03T15:03:43;14.40;48.80
60353;DHT22;46196;52.970;6.954;2023-04-03T15:06:12;14.50;49.70
60353;DHT22;46196;52.970;6.954;2023-04-03T15:08:38;14.60;51.00
60353;DHT22;46196;52.970;6.954;2023-04-03T15:11:03;14.50;49.00
60353;DHT22;46196;52.970;6.954;2023-04-03T15:13:30;14.50;48.20
60353;DHT22;46196;52.970;6.954;2023-04-03T15:15:56;14.60;49.40
60353;DHT22;46196;52.970;6.954;2023-04-03T15:18:24;14.40;47.60
60353;DHT22;46196;52.970;6.954;2023-04-03T15:20:52;14.00;49.20
60353;DHT22;46196;52.970;6.954;2023-04-03T15:23:19;14.00;49.40
60353;DHT22;46196;52.970;6.954;2023-04-03T15:25:47;14.00;48.70
60353;DHT22;46196;52.970;6.954;2023-04-03T15:28:30;14.10;49.00
60353;DHT22;46196;52.970;6.954;2023-04-03T15:30:57;13.90;46.20
60353;DHT22;46196;52.970;6.954;2023-04-03T15:33:23;14.10;48.70
60353;DHT22;46196;52.970;6.954;2023-04-03T15:35:50;14.10;49.60
60353;DHT22;46196;52.970;6.954;2023-04-03T15:38:16;14.00;49.00
60353;DHT22;46196;52.970;6.954;2023-04-03T15:40:42;14.10;47.00
60353;DHT22;46196;52.970;6.954;2023-04-03T15:43:09;14.00;47.20
60353;DHT22;46196;52.970;6.954;2023-04-03T15:45:36;14.10;47.10
60353;DHT22;46196;52.970;6.954;2023-04-03T15:48:04;14.10;47.60
60353;DHT22;46196;52.970;6.954;2023-04-03T15:50:34;14.20;48.10
60353;DHT22;46196;52.970;6.954;2023-04-03T15:53:00;14.30;47.80
60353;DHT22;46196;52.970;6.954;2023-04-03T15:55:33;14.20;47.00
60353;DHT22;46196;52.970;6.954;2023-04-03T15:58:00;14.00;47.90
60353;DHT22;46196;52.970;6.954;2023-04-03T16:00:27;13.80;46.90
60353;DHT22;46196;52.970;6.954;2023-04-03T16:02:56;13.70;47.40
60353;DHT22;46196;52.970;6.954;2023-04-03T16:05:23;13.50;46.60
60353;DHT22;46196;52.970;6.954;2023-04-03T16:07:50;13.50;46.90
60353;DHT22;46196;52.970;6.954;2023-04-03T16:10:17;13.60;47.40
60353;DHT22;46196;52.970;6.954;2023-04-03T16:12:44;13.40;47.80
60353;DHT22;46196;52.970;6.954;2023-04-03T16:15:10;13.50;47.50
60353;DHT22;46196;52.970;6.954;2023-04-03T16:17:39;13.60;48.30
60353;DHT22;46196;52.970;6.954;2023-04-03T16:20:10;13.80;47.40
60353;DHT22;46196;52.970;6.954;2023-04-03T16:22:37;13.60;46.70
60353;DHT22;46196;52.970;6.954;2023-04-03T16:25:05;13.50;46.70
60353;DHT22;46196;52.970;6.954;2023-04-03T16:27:31;13.60;47.40
60353;DHT22;46196;52.970;6.954;2023-04-03T16:29:58;13.50;47.20
60353;DHT22;46196;52.970;6.954;2023-04-03T16:32:26;13.50;47.30
60353;DHT22;46196;52.970;6.954;2023-04-03T16:34:53;13.50;48.80
60353;DHT22;46196;52.970;6.954;2023-04-03T16:37:19;13.40;48.80
60353;DHT22;46196;52.970;6.954;2023-04-03T16:39:45;13.30;47.90
60353;DHT22;46196;52.970;6.954;2023-04-03T16:42:11;13.30;48.20
60353;DHT22;46196;52.970;6.954;2023-04-03T16:44:37;13.30;48.40
60353;DHT22;46196;52.970;6.954;2023-04-03T16:47:05;13.10;48.30
60353;DHT22;46196;52.970;6.954;2023-04-03T16:49:31;12.80;48.90
60353;DHT22;46196;52.970;6.954;2023-04-03T16:52:04;12.70;49.20
60353;DHT22;46196;52.970;6.954;2023-04-03T16:54:31;12.70;46.10
60353;DHT22;46196;52.970;6.954;2023-04-03T16:56:57;12.40;47.20
60353;DHT22;46196;52.970;6.954;2023-04-03T16:59:24;12.40;47.40
60353;DHT22;46196;52.970;6.954;2023-04-03T17:01:50;12.40;48.90
60353;DHT22;46196;52.970;6.954;2023-04-03T17:04:16;12.30;49.60
60353;DHT22;46196;52.970;6.954;2023-04-03T17:06:42;12.30;50.20
60353;DHT22;46196;52.970;6.954;2023-04-03T17:09:09;12.40;49.90
60353;DHT22;46196;52.970;6.954;2023-04-03T17:11:35;12.30;50.00
60353;DHT22;46196;52.970;6.954;2023-04-03T17:14:01;12.10;50.10
60353;DHT22;46196;52.970;6.954;2023-04-03T17:16:28;12.00;49.80
60353;DHT22;46196;52.970;6.954;2023-04-03T17:18:54;12.10;51.60
60353;DHT22;46196;52.970;6.954;2023-04-03T17:21:20;12.00;50.60
60353;DHT22;46196;52.970;6.954;2023-04-03T17:23:50;11.90;50.20
60353;DHT22;46196;52.970;6.954;2023-04-03T17:26:18;11.70;51.00
60353;DHT22;46196;52.970;6.954;2023-04-03T17:28:44;11.60;49.60
60353;DHT22;46196;52.970;6.954;2023-04-03T17:31:10;11.30;50.30
60353;DHT22;46196;52.970;6.954;2023-04-03T17:33:36;11.20;52.00
60353;DHT22;46196;52.970;6.954;2023-04-03T17:36:03;11.10;52.40
60353;DHT22;46196;52.970;6.954;2023-04-03T17:38:30;10.80;52.30
60353;DHT22;46196;52.970;6.954;2023-04-03T17:40:57;10.80;53.10
60353;DHT22;46196;52.970;6.954;2023-04-03T17:43:24;10.40;54.40
60353;DHT22;46196;52.970;6.954;2023-04-03T17:45:50;10.50;54.80
60353;DHT22;46196;52.970;6.954;2023-04-03T17:48:16;10.40;55.80
60353;DHT22;46196;52.970;6.954;2023-04-03T17:50:42;10.20;55.30
60353;DHT22;46196;52.970;6.954;2023-04-03T17:53:08;10.00;57.10
60353;DHT22;46196;52.970;6.954;2023-04-03T17:55:37;9.80;57.70
60353;DHT22;46196;52.970;6.954;2023-04-03T17:58:03;9.60;58.40
60353;DHT22;46196;52.970;6.954;2023-04-03T18:00:29;9.30;59.00
60353;DHT22;46196;52.970;6.954;2023-04-03T18:02:54;9.30;60.00
60353;DHT22;46196;52.970;6.954;2023-04-03T18:05:21;8.80;60.20
60353;DHT22;46196;52.970;6.954;2023-04-03T18:07:47;8.80;61.70
60353;DHT22;46196;52.970;6.954;2023-04-03T18:10:14;8.70;61.50
60353;DHT22;46196;52.970;6.954;2023-04-03T18:12:41;7.40;60.50
60353;DHT22;46196;52.970;6.954;2023-04-03T18:15:07;8.30;61.60
60353;DHT22;46196;52.970;6.954;2023-04-03T18:17:33;8.10;61.80
60353;DHT22;46196;52.970;6.954;2023-04-03T18:19:59;8.00;62.60
60353;DHT22;46196;52.970;6.954;2023-04-03T18:22:26;7.90;64.20
60353;DHT22;46196;52.970;6.954;2023-04-03T18:24:52;6.80;61.80
60353;DHT22;46196;52.970;6.954;2023-04-03T18:27:20;7.60;59.00
60353;DHT22;46196;52.970;6.954;2023-04-03T18:29:57;7.90;64.70
60353;DHT22;46196;52.970;6.954;2023-04-03T18:32:25;6.60;64.30
60353;DHT22;46196;52.970;6.954;2023-04-03T18:34:50;8.00;66.40
60353;DHT22;46196;52.970;6.954;2023-04-03T18:37:16;7.10;62.70
60353;DHT22;46196;52.970;6.954;2023-04-03T18:39:43;8.20;69.30
60353;DHT22;46196;52.970;6.954;2023-04-03T18:42:15;7.20;69.70
60353;DHT22;46196;52.970;6.954;2023-04-03T18:44:43;6.90;66.20
60353;DHT22;46196;52.970;6.954;2023-04-03T18:47:11;6.00;72.50
60353;DHT22;46196;52.970;6.954;2023-04-03T18:49:38;5.40;74.30
60353;DHT22;46196;52.970;6.954;2023-04-03T18:52:05;6.50;75.40